Time;durP1;ratioP1;P1;durP2;ratioP2;P2;SDS_P1;SDS_P2;PMS_P1;PMS_P2;Temp;Humidity;BMP_temperature;BMP_pressure;BME280_temperature;BME280_humidity;BME280_pressure;Samples;Min_cycle;Max_cycle;Signal;HPM_P1;HPM_P2
2022/01/27 00:01:35;;;;;;;8.10;2.80;;;6.60;46.60;;;;;;5074468;28;20148;-49
2022/01/27 00:06:34;;;;;;;9.38;3.47;;;6.50;47.00;;;;;;5074376;28;20167;-49
2022/01/27 00:09:11;;;;;;;10.25;4.28;;;6.40;47.00;;;;;;5074283;28;20251;-49
2022/01/27 00:11:38;;;;;;;6.30;2.40;;;6.40;47.40;;;;;;5074265;28;20210;-49
2022/01/27 00:14:04;;;;;;;4.15;2.95;;;6.40;47.40;;;;;;5074072;28;20707;-49
2022/01/27 00:16:34;;;;;;;4.10;3.10;;;6.40;47.20;;;;;;5074366;28;20172;-49
2022/01/27 00:19:00;;;;;;;8.88;3.42;;;6.40;47.20;;;;;;5074370;28;20403;-49
2022/01/27 00:21:30;;;;;;;6.07;2.63;;;6.50;47.30;;;;;;5072889;28;20173;-49
2022/01/27 00:23:57;;;;;;;5.72;2.85;;;6.50;47.10;;;;;;5073794;28;20584;-49
2022/01/27 00:26:24;;;;;;;6.63;3.63;;;6.40;47.00;;;;;;5073769;28;20169;-49
2022/01/27 00:28:50;;;;;;;6.93;3.05;;;6.30;47.60;;;;;;5074034;28;20161;-49
2022/01/27 00:31:18;;;;;;;4.75;2.70;;;6.30;47.60;;;;;;5072629;28;20179;-49
2022/01/27 00:33:46;;;;;;;6.70;2.40;;;6.30;47.60;;;;;;5073933;28;20193;-49
2022/01/27 00:36:12;;;;;;;19.20;4.30;;;6.40;47.40;;;;;;5073766;28;20167;-49
2022/01/27 00:38:38;;;;;;;5.40;4.20;;;6.40;47.30;;;;;;5072570;28;20173;-49
2022/01/27 00:41:04;;;;;;;7.60;3.10;;;6.40;47.30;;;;;;5073736;28;20160;-49
2022/01/27 00:43:30;;;;;;;6.23;2.10;;;6.50;47.10;;;;;;5073916;28;20222;-49
2022/01/27 00:45:56;;;;;;;4.40;2.80;;;6.50;47.00;;;;;;5072399;28;20172;-49
2022/01/27 00:48:22;;;;;;;7.97;2.70;;;6.50;47.10;;;;;;5072409;28;20707;-49
2022/01/27 00:50:54;;;;;;;13.03;4.93;;;6.50;47.00;;;;;;5072395;28;20200;-49
2022/01/27 00:53:30;;;;;;;7.70;4.53;;;6.50;47.10;;;;;;5073570;28;20643;-49
2022/01/27 00:55:59;;;;;;;6.25;3.03;;;6.50;46.80;;;;;;5073637;28;20234;-49
2022/01/27 00:58:50;;;;;;;7.63;2.85;;;6.50;46.70;;;;;;5072343;28;20529;-49
2022/01/27 01:01:19;;;;;;;11.48;4.38;;;6.60;46.60;;;;;;5073689;28;20168;-49
2022/01/27 01:03:48;;;;;;;8.80;2.83;;;6.40;46.90;;;;;;5073484;28;20572;-49
2022/01/27 01:06:40;;;;;;;8.25;3.80;;;6.40;46.60;;;;;;5073740;28;20541;-49
2022/01/27 01:12:04;;;;;;;10.93;2.90;;;6.50;46.30;;;;;;5073421;28;20254;-49
2022/01/27 01:14:38;;;;;;;6.72;2.55;;;6.50;46.50;;;;;;5073258;28;20205;-49
2022/01/27 01:17:34;;;;;;;9.10;5.45;;;6.20;46.30;;;;;;5073388;28;20157;-49
2022/01/27 01:32:59;;;;;;;8.43;2.80;;;6.30;46.70;;;;;;5073254;28;20172;-49
2022/01/27 01:35:36;;;;;;;9.93;2.55;;;6.30;46.60;;;;;;5073231;28;20220;-49
2022/01/27 01:38:20;;;;;;;8.45;2.63;;;6.30;46.50;;;;;;5073293;28;20153;-49
2022/01/27 01:40:48;;;;;;;4.45;2.75;;;6.30;46.60;;;;;;5075587;28;20164;-49
2022/01/27 01:43:15;;;;;;;6.50;3.45;;;6.30;46.60;;;;;;5075831;28;20672;-49
2022/01/27 01:45:41;;;;;;;15.10;3.83;;;6.30;46.50;;;;;;5077100;28;20157;-49
2022/01/27 01:48:07;;;;;;;5.77;1.80;;;6.30;46.70;;;;;;5077062;28;20179;-49
2022/01/27 01:50:32;;;;;;;5.17;2.33;;;6.40;46.50;;;;;;5077071;28;20770;-49
2022/01/27 01:52:58;;;;;;;6.23;2.77;;;6.40;46.40;;;;;;5077002;28;20406;-49
2022/01/27 01:55:24;;;;;;;4.27;2.40;;;6.50;46.40;;;;;;5075644;28;20676;-49
2022/01/27 01:57:51;;;;;;;3.25;2.20;;;6.60;46.30;;;;;;5076974;28;20407;-49
2022/01/27 02:00:18;;;;;;;10.18;4.05;;;6.60;46.30;;;;;;5077283;28;20181;-49
2022/01/27 02:02:44;;;;;;;5.60;2.60;;;6.50;46.20;;;;;;5076827;28;20161;-49
2022/01/27 02:05:10;;;;;;;5.55;2.20;;;6.50;46.30;;;;;;5076715;28;20702;-49
2022/01/27 02:18:21;;;;;;;12.88;3.33;;;6.50;46.30;;;;;;5076699;28;20644;-49
2022/01/27 02:20:47;;;;;;;8.97;4.57;;;6.40;45.80;;;;;;5076413;28;20172;-49
2022/01/27 02:23:13;;;;;;;7.60;2.47;;;6.40;46.30;;;;;;5076367;28;20562;-50
2022/01/27 02:25:38;;;;;;;4.60;3.37;;;6.40;46.20;;;;;;5076467;28;20167;-49
2022/01/27 02:28:05;;;;;;;7.07;2.00;;;6.50;45.90;;;;;;5076279;28;20169;-49
2022/01/27 02:30:31;;;;;;;5.90;3.28;;;6.40;45.70;;;;;;5076375;28;20168;-49
2022/01/27 02:32:58;;;;;;;5.13;3.10;;;6.40;46.10;;;;;;5076226;28;20223;-49
2022/01/27 02:35:27;;;;;;;7.95;4.20;;;6.50;46.10;;;;;;5076221;28;20462;-49
2022/01/27 02:37:53;;;;;;;4.90;2.10;;;6.50;45.90;;;;;;5076116;28;20225;-49
2022/01/27 02:40:26;;;;;;;5.28;3.45;;;6.40;45.90;;;;;;5074791;28;20595;-49
2022/01/27 02:42:52;;;;;;;8.63;3.05;;;6.40;45.80;;;;;;5076001;28;20227;-49
2022/01/27 02:45:36;;;;;;;4.95;2.65;;;6.50;45.80;;;;;;5074662;28;20222;-49
2022/01/27 02:48:02;;;;;;;4.70;2.40;;;6.50;45.60;;;;;;5076032;28;20157;-49
2022/01/27 02:50:28;;;;;;;4.63;2.60;;;6.50;45.70;;;;;;5074359;28;20165;-49
2022/01/27 02:52:54;;;;;;;10.73;4.10;;;6.50;45.70;;;;;;5074554;28;20169;-49
2022/01/27 02:55:20;;;;;;;5.80;4.03;;;6.60;45.60;;;;;;5075936;28;20204;-49
2022/01/27 02:57:45;;;;;;;10.97;3.97;;;6.60;45.90;;;;;;5075767;28;20624;-49
2022/01/27 03:00:11;;;;;;;10.20;2.67;;;6.50;45.30;;;;;;5075939;28;20251;-49
2022/01/27 03:02:37;;;;;;;3.10;1.92;;;6.50;45.10;;;;;;5075765;28;20196;-49
2022/01/27 03:05:04;;;;;;;5.20;3.50;;;6.40;45.00;;;;;;5074346;28;20193;-49
2022/01/27 03:07:30;;;;;;;10.02;3.17;;;6.40;45.40;;;;;;5075525;28;20168;-49
2022/01/27 03:09:56;;;;;;;4.20;2.17;;;6.40;45.50;;;;;;5075563;28;20247;-49
2022/01/27 03:12:25;;;;;;;8.23;2.30;;;6.30;45.50;;;;;;5075666;28;20850;-49
2022/01/27 03:14:51;;;;;;;17.38;4.53;;;6.30;45.40;;;;;;5075351;28;20201;-49
2022/01/27 03:17:17;;;;;;;6.63;2.47;;;6.40;45.50;;;;;;5075500;28;20165;-49
2022/01/27 03:19:42;;;;;;;4.40;2.67;;;6.40;45.40;;;;;;5075350;28;20165;-49
2022/01/27 03:22:09;;;;;;;6.77;4.60;;;6.30;45.40;;;;;;5075487;28;20524;-49
2022/01/27 03:24:36;;;;;;;7.90;3.90;;;6.30;45.40;;;;;;5075172;28;20451;-49
2022/01/27 03:27:05;;;;;;;4.25;2.15;;;6.30;45.80;;;;;;5075153;28;20164;-49
2022/01/27 03:29:31;;;;;;;3.45;1.75;;;6.30;45.50;;;;;;5075275;28;20196;-49
2022/01/27 03:31:57;;;;;;;5.20;2.40;;;6.30;45.50;;;;;;5075016;28;20549;-49
2022/01/27 03:34:23;;;;;;;11.30;3.73;;;6.20;45.60;;;;;;5075132;28;20184;-49
2022/01/27 03:36:49;;;;;;;5.85;2.83;;;6.30;45.70;;;;;;5075107;28;20247;-49
2022/01/27 03:39:17;;;;;;;6.07;3.55;;;6.30;45.50;;;;;;5074894;28;20164;-49
2022/01/27 03:41:49;;;;;;;5.90;3.03;;;6.40;45.60;;;;;;5074851;28;20620;-49
2022/01/27 03:44:15;;;;;;;5.95;3.72;;;6.40;45.40;;;;;;5075003;28;20255;-49
2022/01/27 03:46:41;;;;;;;7.70;3.20;;;6.40;45.40;;;;;;5074788;28;20663;-49
2022/01/27 03:49:06;;;;;;;8.50;2.80;;;6.40;45.30;;;;;;5073420;28;20173;-49
2022/01/27 03:51:32;;;;;;;6.77;2.77;;;6.40;45.20;;;;;;5074734;28;20169;-49
2022/01/27 03:53:58;;;;;;;13.80;5.33;;;6.40;46.10;;;;;;5074519;28;20199;-49
2022/01/27 03:56:23;;;;;;;15.63;5.90;;;6.40;45.40;;;;;;5074676;28;20172;-49
2022/01/27 03:58:49;;;;;;;4.57;2.13;;;6.40;45.40;;;;;;5073280;28;20310;-49
2022/01/27 04:01:16;;;;;;;5.07;2.53;;;6.30;45.50;;;;;;5072488;28;20204;-49
2022/01/27 04:03:43;;;;;;;3.80;2.20;;;6.20;45.90;;;;;;5074432;28;20176;-49
2022/01/27 04:06:10;;;;;;;7.15;2.88;;;6.20;46.00;;;;;;5074630;28;20257;-49
2022/01/27 04:08:37;;;;;;;9.52;2.72;;;6.20;46.30;;;;;;5074328;28;20754;-49
2022/01/27 04:11:07;;;;;;;10.18;3.22;;;6.20;46.00;;;;;;5074287;28;20176;-49
2022/01/27 04:13:33;;;;;;;9.23;4.10;;;6.30;45.80;;;;;;5074142;28;20251;-49
2022/01/27 04:15:59;;;;;;;12.67;3.33;;;6.20;45.90;;;;;;5074260;28;20700;-49
2022/01/27 04:18:26;;;;;;;4.55;2.20;;;6.20;45.80;;;;;;5074119;28;20415;-49
2022/01/27 04:20:51;;;;;;;7.18;2.53;;;6.30;45.90;;;;;;5072785;28;20177;-50
2022/01/27 04:23:18;;;;;;;6.80;2.37;;;6.30;45.80;;;;;;5074143;28;20208;-50
2022/01/27 04:25:45;;;;;;;7.53;2.35;;;6.20;45.80;;;;;;5074065;28;20199;-49
2022/01/27 04:28:14;;;;;;;8.43;3.00;;;6.10;46.00;;;;;;5073888;28;20187;-49
2022/01/27 04:30:39;;;;;;;8.13;3.88;;;6.10;46.20;;;;;;5074097;28;20169;-49
2022/01/27 04:33:07;;;;;;;7.90;3.37;;;6.00;46.40;;;;;;5073860;28;20604;-49
2022/01/27 04:35:37;;;;;;;6.03;2.67;;;6.00;46.30;;;;;;5073850;28;20455;-49
2022/01/27 04:48:37;;;;;;;5.88;2.85;;;6.00;46.50;;;;;;5072592;28;20160;-49
2022/01/27 04:51:07;;;;;;;11.63;2.60;;;6.10;46.30;;;;;;5073891;28;20192;-49
2022/01/27 04:53:40;;;;;;;12.88;3.05;;;6.20;45.90;;;;;;5073696;28;20173;-49
2022/01/27 04:56:10;;;;;;;5.25;2.55;;;6.10;45.80;;;;;;5073570;28;20281;-50
2022/01/27 04:58:36;;;;;;;5.38;3.30;;;6.10;46.00;;;;;;5072269;28;20184;-49
2022/01/27 05:01:04;;;;;;;4.17;2.20;;;6.10;46.00;;;;;;5073524;28;20537;-49
2022/01/27 05:03:37;;;;;;;5.28;2.50;;;6.20;45.80;;;;;;5073483;28;20466;-49
2022/01/27 05:06:03;;;;;;;4.57;3.22;;;6.10;46.30;;;;;;5073455;28;20210;-49
2022/01/27 05:08:29;;;;;;;9.82;3.25;;;6.00;46.30;;;;;;5073429;28;20244;-49
2022/01/27 05:11:02;;;;;;;15.60;4.43;;;6.10;46.40;;;;;;5073599;28;20204;-49
2022/01/27 05:13:35;;;;;;;6.15;2.63;;;6.10;46.20;;;;;;5073530;28;20157;-49
2022/01/27 05:16:02;;;;;;;4.28;2.70;;;6.10;46.20;;;;;;5073421;28;20201;-49
2022/01/27 05:18:27;;;;;;;7.53;2.92;;;6.20;46.10;;;;;;5073201;28;20177;-49
2022/01/27 05:20:53;;;;;;;5.50;2.20;;;6.10;46.60;;;;;;5072013;28;20172;-49
2022/01/27 05:23:19;;;;;;;7.23;3.10;;;6.10;46.50;;;;;;5073149;28;20743;-49
2022/01/27 05:25:44;;;;;;;9.90;5.00;;;6.20;46.00;;;;;;5073296;28;20160;-49
2022/01/27 05:28:10;;;;;;;5.73;3.33;;;6.10;46.30;;;;;;5073366;28;20171;-49
2022/01/27 05:30:36;;;;;;;4.03;3.00;;;7.30;46.50;;;;;;5073338;28;20202;-49
2022/01/27 05:33:02;;;;;;;3.58;2.22;;;6.10;46.20;;;;;;5073248;28;20251;-49
2022/01/27 05:35:28;;;;;;;7.07;2.80;;;6.10;46.50;;;;;;5073504;28;20608;-49
2022/01/27 05:37:53;;;;;;;6.43;3.90;;;6.10;46.40;;;;;;5073305;28;20214;-49
2022/01/27 05:40:19;;;;;;;5.77;3.60;;;6.10;46.30;;;;;;5072080;28;20591;-49
2022/01/27 05:42:45;;;;;;;5.20;1.97;;;6.20;46.10;;;;;;5073140;28;20693;-49
2022/01/27 05:45:11;;;;;;;3.20;1.07;;;6.20;45.80;;;;;;5073010;28;20219;-49
2022/01/27 05:47:37;;;;;;;5.30;1.70;;;6.20;46.00;;;;;;5073264;28;20192;-49
2022/01/27 05:50:04;;;;;;;3.10;1.43;;;6.20;45.80;;;;;;5071678;28;20580;-49
2022/01/27 05:52:31;;;;;;;5.80;2.58;;;6.30;45.80;;;;;;5073153;28;20409;-49
2022/01/27 05:54:57;;;;;;;9.27;3.08;;;6.30;45.80;;;;;;5072926;28;20203;-49
2022/01/27 05:57:23;;;;;;;6.40;2.00;;;6.20;46.00;;;;;;5072986;28;20620;-49
2022/01/27 05:59:49;;;;;;;1.70;1.17;;;6.30;45.60;;;;;;5072866;28;20188;-49
2022/01/27 06:02:14;;;;;;;2.07;1.10;;;6.10;46.00;;;;;;5073013;28;20169;-49
2022/01/27 06:04:40;;;;;;;4.50;1.40;;;6.20;45.80;;;;;;5072848;28;20211;-49
2022/01/27 06:07:06;;;;;;;3.87;2.50;;;6.40;45.50;;;;;;5072644;28;20195;-49
2022/01/27 06:09:31;;;;;;;8.50;3.57;;;6.30;45.70;;;;;;5072932;28;20222;-50
2022/01/27 06:11:57;;;;;;;5.17;2.87;;;6.40;45.20;;;;;;5072666;28;20213;-49
2022/01/27 06:14:23;;;;;;;7.10;4.33;;;6.30;45.40;;;;;;5072659;28;20534;-49
2022/01/27 06:16:49;;;;;;;5.33;2.00;;;6.30;45.10;;;;;;5072640;28;20180;-49
2022/01/27 06:19:15;;;;;;;5.80;3.43;;;6.20;45.40;;;;;;5071409;28;20601;-49
2022/01/27 06:21:43;;;;;;;7.27;2.87;;;6.30;45.50;;;;;;5072671;28;20506;-49
2022/01/27 06:24:09;;;;;;;3.65;1.50;;;6.40;45.20;;;;;;5072709;28;20447;-49
2022/01/27 06:26:34;;;;;;;5.30;2.30;;;6.30;45.10;;;;;;5076228;28;20644;-49
2022/01/27 06:29:00;;;;;;;4.20;2.80;;;6.20;44.90;;;;;;5076231;28;20172;-49
2022/01/27 06:31:26;;;;;;;3.97;1.97;;;6.10;45.40;;;;;;5076201;28;20242;-49
2022/01/27 06:33:54;;;;;;;4.47;2.13;;;6.10;45.40;;;;;;5076068;28;20583;-49
2022/01/27 06:36:20;;;;;;;4.65;3.15;;;6.10;45.30;;;;;;5076219;28;20637;-49
2022/01/27 06:38:48;;;;;;;5.87;2.80;;;6.00;45.40;;;;;;5076066;28;20176;-49
2022/01/27 06:41:14;;;;;;;6.20;2.90;;;6.00;45.50;;;;;;5075169;28;21053;-49
2022/01/27 06:43:39;;;;;;;3.13;2.80;;;5.90;45.30;;;;;;5075834;28;20248;-49
2022/01/27 06:46:05;;;;;;;4.80;2.20;;;5.90;45.60;;;;;;5075904;28;20918;-49
2022/01/27 06:48:31;;;;;;;9.00;3.57;;;5.90;45.70;;;;;;5074536;28;20430;-49
2022/01/27 06:50:56;;;;;;;6.53;3.37;;;6.00;45.00;;;;;;5075792;28;20633;-49
2022/01/27 06:53:23;;;;;;;3.37;1.90;;;5.90;45.40;;;;;;5076020;28;20173;-49
2022/01/27 06:55:49;;;;;;;4.35;2.08;;;6.00;45.50;;;;;;5075609;28;20192;-49
2022/01/27 06:58:15;;;;;;;12.88;2.28;;;6.10;45.30;;;;;;5075868;28;20579;-49
2022/01/27 07:00:41;;;;;;;3.80;2.33;;;6.10;45.00;;;;;;5075403;28;20169;-49
2022/01/27 07:03:07;;;;;;;2.70;1.88;;;6.10;44.70;;;;;;5075737;28;20184;-49
2022/01/27 07:05:34;;;;;;;4.88;2.90;;;5.90;45.20;;;;;;5075570;28;20175;-49
2022/01/27 07:08:01;;;;;;;6.63;2.38;;;5.90;45.60;;;;;;5074089;28;20176;-49
2022/01/27 07:10:28;;;;;;;8.55;2.67;;;5.90;45.50;;;;;;5057601;28;20521;-49
2022/01/27 07:12:54;;;;;;;3.17;1.58;;;6.00;45.10;;;;;;5075407;28;20264;-49
2022/01/27 07:15:20;;;;;;;3.07;2.63;;;6.10;45.30;;;;;;5075203;28;20732;-49
2022/01/27 07:17:47;;;;;;;8.65;1.80;;;6.10;45.00;;;;;;5075388;28;20490;-49
2022/01/27 07:20:12;;;;;;;7.65;2.70;;;6.10;44.60;;;;;;5075223;28;20177;-49
2022/01/27 07:22:38;;;;;;;3.33;2.50;;;6.10;44.90;;;;;;5075403;28;20172;-49
2022/01/27 07:25:06;;;;;;;7.10;2.23;;;6.20;44.70;;;;;;5074920;28;20824;-49
2022/01/27 07:27:32;;;;;;;2.97;1.85;;;6.30;44.70;;;;;;5073937;28;20422;-49
2022/01/27 07:29:58;;;;;;;4.78;2.08;;;6.30;44.30;;;;;;5075074;28;20184;-49
2022/01/27 07:32:24;;;;;;;3.80;3.08;;;6.10;44.60;;;;;;5075099;28;20628;-49
2022/01/27 07:34:50;;;;;;;9.10;2.40;;;6.00;45.00;;;;;;5074992;28;20247;-49
2022/01/27 07:37:15;;;;;;;3.67;3.33;;;5.80;45.00;;;;;;5073730;28;20465;-49
2022/01/27 07:39:41;;;;;;;4.30;1.70;;;5.80;45.60;;;;;;5074916;28;20766;-49
2022/01/27 07:42:07;;;;;;;7.23;3.10;;;5.80;45.40;;;;;;5074862;28;20169;-49
2022/01/27 07:44:33;;;;;;;5.83;1.90;;;5.90;45.70;;;;;;5074848;28;20164;-49
2022/01/27 07:46:58;;;;;;;2.33;1.67;;;5.80;45.00;;;;;;5074681;28;20408;-49
2022/01/27 07:49:24;;;;;;;7.07;2.57;;;5.90;45.60;;;;;;5074865;28;20164;-49
2022/01/27 07:51:50;;;;;;;3.73;1.67;;;6.00;45.20;;;;;;5074649;28;20243;-49
2022/01/27 07:54:16;;;;;;;9.03;2.30;;;6.00;45.00;;;;;;5074760;28;20555;-49
2022/01/27 07:56:42;;;;;;;2.38;1.73;;;6.10;44.90;;;;;;5074458;28;20169;-49
2022/01/27 07:59:08;;;;;;;4.77;3.40;;;6.10;44.30;;;;;;5074473;28;20242;-49
2022/01/27 08:01:33;;;;;;;6.67;2.10;;;6.00;44.20;;;;;;5074361;28;20259;-49
2022/01/27 08:03:59;;;;;;;4.13;2.70;;;6.00;44.40;;;;;;5074388;28;20396;-49
2022/01/27 08:06:25;;;;;;;4.13;2.23;;;6.10;44.30;;;;;;5074235;28;20192;-49
2022/01/27 08:08:50;;;;;;;6.27;2.90;;;6.00;43.70;;;;;;5074619;28;20675;-49
2022/01/27 08:11:17;;;;;;;3.70;2.77;;;6.10;43.90;;;;;;5074260;28;20638;-49
2022/01/27 08:13:43;;;;;;;4.00;2.40;;;6.10;43.70;;;;;;5074096;28;20172;-49
2022/01/27 08:16:09;;;;;;;2.92;1.85;;;6.10;43.70;;;;;;5074187;28;20164;-49
2022/01/27 08:18:34;;;;;;;6.03;1.70;;;6.10;43.60;;;;;;5074160;28;20165;-49
2022/01/27 08:21:00;;;;;;;3.30;1.97;;;6.00;43.20;;;;;;5074103;28;20169;-49
2022/01/27 08:23:26;;;;;;;7.90;2.10;;;5.80;43.60;;;;;;5073813;28;20221;-49
2022/01/27 08:25:58;;;;;;;8.63;2.42;;;5.80;44.40;;;;;;5074007;28;20153;-49
2022/01/27 08:28:32;;;;;;;6.18;3.17;;;5.80;44.30;;;;;;5074119;28;20157;-49
2022/01/27 08:30:58;;;;;;;3.88;2.45;;;6.10;44.00;;;;;;5073852;28;20161;-49
2022/01/27 08:33:28;;;;;;;9.27;2.30;;;6.70;43.40;;;;;;5073712;28;20180;-49
2022/01/27 08:35:54;;;;;;;12.02;4.65;;;5.90;43.60;;;;;;5073774;28;20743;-49
2022/01/27 08:38:20;;;;;;;3.77;2.67;;;5.90;44.20;;;;;;5073899;28;20230;-49
2022/01/27 08:40:46;;;;;;;8.33;4.60;;;5.90;43.90;;;;;;5073722;28;20810;-49
2022/01/27 08:43:12;;;;;;;7.33;2.33;;;6.00;43.80;;;;;;5072488;28;20517;-49
2022/01/27 08:45:39;;;;;;;10.13;3.45;;;6.20;43.60;;;;;;5072935;28;20502;-49
2022/01/27 08:48:09;;;;;;;11.05;3.53;;;6.30;42.70;;;;;;5073265;28;20644;-49
2022/01/27 08:50:35;;;;;;;8.27;4.82;;;6.30;42.30;;;;;;5073920;28;20230;-49
2022/01/27 08:53:01;;;;;;;8.93;2.75;;;6.20;42.70;;;;;;5073608;28;20177;-49
2022/01/27 08:55:27;;;;;;;4.15;2.85;;;6.20;42.20;;;;;;5073724;28;20197;-49
2022/01/27 08:57:54;;;;;;;2.67;2.07;;;6.00;42.80;;;;;;5073618;28;20632;-49
2022/01/27 09:00:19;;;;;;;5.75;1.58;;;6.10;43.20;;;;;;5073535;28;20641;-49
2022/01/27 09:02:46;;;;;;;4.37;2.17;;;6.20;42.70;;;;;;5073410;28;20197;-49
2022/01/27 09:05:13;;;;;;;5.78;4.00;;;6.10;42.50;;;;;;5073330;28;20399;-49
2022/01/27 09:07:39;;;;;;;7.05;2.35;;;6.20;42.30;;;;;;5073536;28;20168;-49
2022/01/27 09:10:06;;;;;;;4.70;2.45;;;6.60;41.70;;;;;;5073439;28;20173;-49
2022/01/27 09:12:31;;;;;;;6.57;3.28;;;6.60;41.10;;;;;;5073429;28;20505;-49
2022/01/27 09:14:59;;;;;;;5.33;2.70;;;6.60;41.00;;;;;;5073268;28;20317;-49
2022/01/27 09:17:26;;;;;;;4.60;3.00;;;6.70;41.00;;;;;;5072317;28;20199;-49
2022/01/27 09:19:53;;;;;;;8.45;2.70;;;6.60;40.60;;;;;;5073323;28;20176;-49
2022/01/27 09:22:19;;;;;;;3.78;1.55;;;6.70;40.60;;;;;;5073297;28;20176;-49
2022/01/27 09:25:07;;;;;;;5.63;2.70;;;6.60;41.00;;;;;;5073061;28;20216;-49
2022/01/27 09:27:33;;;;;;;6.47;3.35;;;6.50;41.50;;;;;;5073411;28;20161;-49
2022/01/27 09:29:59;;;;;;;5.20;2.45;;;6.70;40.80;;;;;;5071970;28;20164;-49
2022/01/27 09:32:26;;;;;;;8.00;3.53;;;6.80;40.80;;;;;;5073641;28;20175;-49
2022/01/27 09:34:52;;;;;;;4.63;1.83;;;6.80;40.20;;;;;;5073123;28;20455;-49
2022/01/27 09:37:19;;;;;;;6.00;3.22;;;6.80;39.90;;;;;;5073183;28;20192;-49
2022/01/27 09:39:45;;;;;;;3.80;2.83;;;6.60;41.00;;;;;;5071865;28;20269;-49
2022/01/27 09:42:12;;;;;;;7.15;2.50;;;6.70;40.60;;;;;;5073072;28;20203;-49
2022/01/27 09:44:41;;;;;;;15.35;1.75;;;6.70;40.40;;;;;;5073201;28;20165;-49
2022/01/27 09:47:11;;;;;;;5.22;2.38;;;6.60;40.50;;;;;;5073026;28;20176;-49
2022/01/27 09:49:41;;;;;;;3.70;1.90;;;6.70;40.20;;;;;;5072702;28;20575;-49
2022/01/27 09:52:08;;;;;;;4.85;2.35;;;6.80;40.10;;;;;;5073269;28;20167;-49
2022/01/27 09:54:34;;;;;;;2.55;1.25;;;6.80;40.00;;;;;;5072920;28;20205;-49
2022/01/27 09:57:01;;;;;;;7.45;2.95;;;6.90;39.80;;;;;;5072988;28;20168;-49
2022/01/27 09:59:27;;;;;;;3.70;2.20;;;6.90;39.90;;;;;;5073905;28;20164;-49
2022/01/27 10:02:09;;;;;;;5.07;3.23;;;7.00;39.30;;;;;;5076686;28;20255;-49
2022/01/27 10:04:49;;;;;;;3.60;1.75;;;7.00;39.50;;;;;;5075367;28;20422;-49
2022/01/27 10:07:21;;;;;;;5.97;2.67;;;7.10;39.90;;;;;;5076758;28;20157;-49
2022/01/27 10:10:00;;;;;;;5.80;2.50;;;7.00;39.00;;;;;;5076825;28;20173;-49
2022/01/27 10:12:29;;;;;;;6.82;3.88;;;7.00;39.40;;;;;;5076486;28;20218;-49
2022/01/27 10:15:00;;;;;;;3.30;2.00;;;7.00;39.40;;;;;;5076462;28;20204;-49
2022/01/27 10:17:25;;;;;;;4.32;1.85;;;7.10;39.40;;;;;;5076492;28;20525;-49
2022/01/27 10:19:55;;;;;;;4.57;1.27;;;7.00;39.00;;;;;;5075501;28;20183;-49
2022/01/27 10:22:21;;;;;;;5.43;2.70;;;7.00;39.40;;;;;;5076474;28;20667;-49
2022/01/27 10:25:02;;;;;;;6.07;2.88;;;7.10;39.50;;;;;;5076215;28;20216;-49
2022/01/27 10:32:56;;;;;;;5.15;2.67;;;7.10;39.10;;;;;;5076494;28;20185;-49
2022/01/27 10:35:25;;;;;;;5.55;2.92;;;7.00;39.90;;;;;;5076216;28;20197;-49
2022/01/27 10:37:52;;;;;;;4.13;3.13;;;7.10;39.20;;;;;;5076027;28;20184;-49
2022/01/27 10:40:41;;;;;;;4.45;2.33;;;7.10;39.20;;;;;;5076026;28;20247;-49
2022/01/27 10:43:16;;;;;;;3.05;1.77;;;7.00;39.30;;;;;;5076077;28;20667;-49
2022/01/27 10:46:27;;;;;;;12.85;4.28;;;7.10;39.40;;;;;;5076136;28;20195;-49
2022/01/27 10:49:09;;;;;;;9.75;3.25;;;7.10;39.40;;;;;;5075901;28;20173;-49
2022/01/27 10:51:44;;;;;;;6.70;4.50;;;7.10;39.20;;;;;;5075847;28;20161;-49
2022/01/27 10:54:22;;;;;;;4.28;1.90;;;7.20;39.30;;;;;;5075976;28;20243;-49
2022/01/27 10:56:48;;;;;;;3.55;2.78;;;7.20;39.50;;;;;;5075756;28;20187;-49
2022/01/27 10:59:17;;;;;;;3.55;2.08;;;7.20;38.80;;;;;;5074392;28;20241;-49
2022/01/27 11:01:45;;;;;;;5.43;2.97;;;7.20;39.50;;;;;;5075659;28;20188;-49
2022/01/27 11:04:12;;;;;;;3.72;2.63;;;7.20;39.50;;;;;;5075810;28;20578;-49
2022/01/27 11:06:57;;;;;;;2.85;1.80;;;7.10;39.30;;;;;;5074916;28;20565;-50
2022/01/27 11:09:24;;;;;;;10.35;2.97;;;7.20;39.30;;;;;;5075683;28;20161;-50
2022/01/27 11:11:52;;;;;;;3.50;1.75;;;7.30;39.20;;;;;;5073915;28;20333;-50
2022/01/27 11:14:19;;;;;;;6.10;3.25;;;7.20;39.10;;;;;;5075481;28;20200;-49
2022/01/27 11:16:47;;;;;;;2.60;2.00;;;7.20;39.40;;;;;;5075341;28;20165;-50
2022/01/27 11:19:33;;;;;;;4.32;2.35;;;7.10;39.60;;;;;;5075618;28;20273;-50
2022/01/27 11:22:11;;;;;;;5.30;3.15;;;7.20;39.80;;;;;;5075333;28;20210;-50
2022/01/27 11:25:07;;;;;;;4.55;2.10;;;7.40;39.50;;;;;;5075159;28;20208;-50
2022/01/27 11:27:33;;;;;;;4.97;2.40;;;7.70;39.50;;;;;;5075043;28;20187;-50
2022/01/27 11:30:17;;;;;;;4.55;2.38;;;7.70;38.90;;;;;;5075275;28;20191;-50
2022/01/27 11:33:08;;;;;;;3.85;2.60;;;7.70;38.80;;;;;;5074900;28;20168;-50
2022/01/27 11:35:34;;;;;;;6.95;2.45;;;7.60;38.80;;;;;;5072232;28;20265;-49
2022/01/27 11:38:04;;;;;;;3.17;1.87;;;7.60;39.50;;;;;;5075252;28;20164;-49
2022/01/27 11:40:38;;;;;;;6.70;3.38;;;7.70;39.40;;;;;;5075130;28;20415;-50
2022/01/27 11:43:08;;;;;;;3.78;1.30;;;7.70;39.20;;;;;;5074900;28;20160;-50
2022/01/27 11:45:36;;;;;;;2.25;1.23;;;7.60;39.40;;;;;;5074875;28;20210;-50
2022/01/27 11:48:10;;;;;;;11.18;3.35;;;7.70;39.50;;;;;;5074747;28;20176;-50
2022/01/27 11:51:12;;;;;;;5.30;3.28;;;7.60;39.30;;;;;;5074995;28;20196;-50
2022/01/27 11:53:41;;;;;;;5.32;2.85;;;7.30;40.20;;;;;;5074776;28;20571;-50
2022/01/27 11:56:27;;;;;;;8.75;3.53;;;7.20;40.90;;;;;;5074603;28;20608;-50
2022/01/27 11:58:56;;;;;;;8.55;3.03;;;7.20;40.80;;;;;;5074492;28;20177;-50
2022/01/27 12:01:34;;;;;;;5.95;2.03;;;7.20;41.20;;;;;;5074513;28;20191;-50
2022/01/27 12:04:06;;;;;;;9.90;3.40;;;7.20;41.20;;;;;;5074601;28;20156;-50
2022/01/27 12:06:47;;;;;;;5.70;2.00;;;7.30;41.30;;;;;;5074437;28;20525;-49
2022/01/27 12:09:19;;;;;;;6.15;3.30;;;7.40;40.80;;;;;;5074355;28;20153;-50
2022/01/27 12:11:49;;;;;;;15.77;3.65;;;7.40;41.00;;;;;;5074258;28;20160;-50
2022/01/27 12:14:24;;;;;;;3.17;1.65;;;7.20;41.40;;;;;;5074428;28;20207;-50
2022/01/27 12:17:08;;;;;;;8.35;2.90;;;7.20;41.80;;;;;;5074496;28;20152;-50
2022/01/27 12:20:03;;;;;;;7.07;3.25;;;7.20;42.20;;;;;;5074178;28;20618;-50
2022/01/27 12:22:52;;;;;;;9.02;4.05;;;7.20;42.10;;;;;;5068559;28;20220;-50
2022/01/27 12:25:20;;;;;;;7.35;3.53;;;7.10;42.60;;;;;;5074506;28;20188;-50
2022/01/27 12:27:50;;;;;;;3.15;1.95;;;7.00;43.00;;;;;;5074012;28;20525;-50
2022/01/27 12:30:16;;;;;;;8.35;2.88;;;7.10;43.30;;;;;;5073912;28;20248;-50
2022/01/27 12:32:42;;;;;;;7.63;2.35;;;7.10;43.10;;;;;;5073828;28;20665;-49
2022/01/27 12:35:14;;;;;;;2.45;1.80;;;7.10;43.20;;;;;;5073734;28;20211;-50
2022/01/27 12:37:46;;;;;;;4.75;2.58;;;7.10;43.60;;;;;;5073919;28;20152;-50
2022/01/27 12:40:20;;;;;;;5.63;2.42;;;7.00;44.10;;;;;;5073947;28;20210;-50
2022/01/27 12:42:53;;;;;;;6.57;4.03;;;7.20;44.00;;;;;;5073690;28;20167;-50
2022/01/27 12:45:26;;;;;;;4.53;1.77;;;7.30;43.90;;;;;;5074018;28;20172;-50
2022/01/27 12:47:51;;;;;;;4.05;2.70;;;7.20;43.90;;;;;;5073993;28;20165;-50
2022/01/27 12:50:21;;;;;;;3.60;1.70;;;7.30;44.00;;;;;;5073752;28;20267;-50
2022/01/27 12:52:51;;;;;;;7.50;2.60;;;7.40;44.00;;;;;;5073549;28;20173;-50
2022/01/27 12:55:20;;;;;;;2.97;2.05;;;7.50;43.60;;;;;;5073622;28;20208;-50
2022/01/27 12:58:00;;;;;;;4.60;2.45;;;7.60;43.30;;;;;;5073543;28;20160;-50
2022/01/27 13:00:28;;;;;;;3.13;2.50;;;7.50;43.60;;;;;;5073672;28;20164;-50
2022/01/27 13:03:00;;;;;;;3.88;2.08;;;7.40;43.90;;;;;;5072778;28;20183;-50
2022/01/27 13:05:44;;;;;;;3.72;1.73;;;7.30;44.10;;;;;;5073644;28;20226;-50
2022/01/27 13:08:21;;;;;;;8.20;2.50;;;7.30;43.90;;;;;;5073522;28;20240;-50
2022/01/27 13:10:50;;;;;;;4.38;1.92;;;7.20;44.20;;;;;;5073588;28;20156;-50
2022/01/27 13:13:21;;;;;;;8.40;1.98;;;7.30;44.30;;;;;;5073363;28;20214;-50
2022/01/27 13:15:58;;;;;;;3.05;1.77;;;7.40;44.10;;;;;;5073576;28;20236;-50
2022/01/27 13:18:30;;;;;;;4.35;1.90;;;7.40;44.20;;;;;;5072029;28;20164;-50
2022/01/27 13:20:58;;;;;;;16.05;2.45;;;7.30;44.50;;;;;;5073382;28;20620;-50
2022/01/27 13:23:29;;;;;;;11.05;3.15;;;7.10;45.40;;;;;;5072931;28;20285;-50
2022/01/27 13:26:09;;;;;;;3.60;1.77;;;7.20;45.20;;;;;;5073244;28;20168;-50
2022/01/27 13:28:37;;;;;;;5.25;2.42;;;7.40;44.80;;;;;;5073591;28;20156;-49
2022/01/27 13:31:06;;;;;;;2.45;1.70;;;7.50;44.50;;;;;;5073167;28;20655;-50
2022/01/27 13:33:47;;;;;;;12.32;2.25;;;7.30;45.00;;;;;;5074344;28;20226;-49
2022/01/27 13:36:36;;;;;;;6.13;3.00;;;7.40;44.80;;;;;;5077261;28;20588;-50
2022/01/27 13:39:34;;;;;;;8.48;2.85;;;7.30;44.80;;;;;;5077271;28;20152;-50
2022/01/27 13:42:07;;;;;;;4.43;3.72;;;7.40;44.80;;;;;;5077040;28;20172;-50
2022/01/27 13:44:34;;;;;;;7.97;2.75;;;7.50;44.50;;;;;;5077090;28;20164;-50
2022/01/27 13:47:05;;;;;;;7.22;3.10;;;7.40;45.20;;;;;;5077012;28;20205;-50
2022/01/27 13:49:37;;;;;;;5.38;2.97;;;7.30;45.30;;;;;;5077063;28;20165;-50
2022/01/27 13:52:15;;;;;;;5.35;2.90;;;7.20;45.70;;;;;;5076942;28;20173;-50